sensor_id;sensor_type;location;lat;lon;timestamp;P1;durP1;ratioP1;P2;durP2;ratioP2
20802;SDS011;10562;-33.856;151.182;2023-07-09T00:02:21;2.85;;;0.70;;
20802;SDS011;10562;-33.856;151.182;2023-07-09T00:04:53;4.05;;;0.70;;
20802;SDS011;10562;-33.856;151.182;2023-07-09T00:07:26;4.63;;;0.90;;
20802;SDS011;10562;-33.856;151.182;2023-07-09T00:09:59;4.03;;;0.93;;
20802;SDS011;10562;-33.856;151.182;2023-07-09T00:12:29;2.70;;;1.00;;
20802;SDS011;10562;-33.856;151.182;2023-07-09T00:15:00;2.45;;;0.70;;
20802;SDS011;10562;-33.856;151.182;2023-07-09T00:17:32;4.65;;;0.85;;
20802;SDS011;10562;-33.856;151.182;2023-07-09T00:20:03;2.40;;;0.70;;
20802;SDS011;10562;-33.856;151.182;2023-07-09T00:22:41;2.85;;;0.77;;
20802;SDS011;10562;-33.856;151.182;2023-07-09T00:25:18;4.03;;;0.85;;
20802;SDS011;10562;-33.856;151.182;2023-07-09T00:27:51;1.58;;;0.50;;
20802;SDS011;10562;-33.856;151.182;2023-07-09T00:30:22;0.88;;;0.57;;
20802;SDS011;10562;-33.856;151.182;2023-07-09T00:32:53;2.60;;;0.60;;
20802;SDS011;10562;-33.856;151.182;2023-07-09T00:35:24;3.38;;;0.65;;
20802;SDS011;10562;-33.856;151.182;2023-07-09T00:37:57;1.25;;;0.70;;
20802;SDS011;10562;-33.856;151.182;2023-07-09T00:40:27;2.78;;;0.70;;
20802;SDS011;10562;-33.856;151.182;2023-07-09T00:42:59;3.50;;;0.80;;
20802;SDS011;10562;-33.856;151.182;2023-07-09T00:45:30;1.88;;;0.80;;
20802;SDS011;10562;-33.856;151.182;2023-07-09T00:48:01;1.70;;;0.60;;
20802;SDS011;10562;-33.856;151.182;2023-07-09T00:50:35;3.58;;;0.80;;
20802;SDS011;10562;-33.856;151.182;2023-07-09T00:53:14;3.80;;;1.20;;
20802;SDS011;10562;-33.856;151.182;2023-07-09T00:55:50;1.77;;;0.55;;
20802;SDS011;10562;-33.856;151.182;2023-07-09T00:58:24;5.18;;;2.80;;
20802;SDS011;10562;-33.856;151.182;2023-07-09T01:00:58;4.38;;;0.98;;
20802;SDS011;10562;-33.856;151.182;2023-07-09T01:03:34;1.65;;;0.65;;
20802;SDS011;10562;-33.856;151.182;2023-07-09T01:06:07;2.58;;;0.60;;
20802;SDS011;10562;-33.856;151.182;2023-07-09T01:08:41;2.63;;;1.00;;
20802;SDS011;10562;-33.856;151.182;2023-07-09T01:11:16;1.70;;;0.57;;
20802;SDS011;10562;-33.856;151.182;2023-07-09T01:13:49;1.10;;;0.68;;
20802;SDS011;10562;-33.856;151.182;2023-07-09T01:16:21;2.35;;;0.93;;
20802;SDS011;10562;-33.856;151.182;2023-07-09T01:18:59;4.72;;;0.70;;
20802;SDS011;10562;-33.856;151.182;2023-07-09T01:21:32;3.70;;;1.00;;
20802;SDS011;10562;-33.856;151.182;2023-07-09T01:24:12;1.50;;;0.80;;
20802;SDS011;10562;-33.856;151.182;2023-07-09T01:26:46;0.90;;;0.52;;
20802;SDS011;10562;-33.856;151.182;2023-07-09T01:29:16;3.15;;;0.60;;
20802;SDS011;10562;-33.856;151.182;2023-07-09T01:31:47;3.17;;;0.80;;
20802;SDS011;10562;-33.856;151.182;2023-07-09T01:34:18;2.67;;;0.80;;
20802;SDS011;10562;-33.856;151.182;2023-07-09T01:36:50;3.72;;;0.70;;
20802;SDS011;10562;-33.856;151.182;2023-07-09T01:39:21;4.40;;;0.93;;
20802;SDS011;10562;-33.856;151.182;2023-07-09T01:41:54;1.58;;;0.80;;
20802;SDS011;10562;-33.856;151.182;2023-07-09T01:44:25;2.92;;;0.57;;
20802;SDS011;10562;-33.856;151.182;2023-07-09T01:46:57;3.85;;;0.90;;
20802;SDS011;10562;-33.856;151.182;2023-07-09T01:49:30;1.92;;;0.70;;
20802;SDS011;10562;-33.856;151.182;2023-07-09T01:52:03;1.90;;;0.60;;
20802;SDS011;10562;-33.856;151.182;2023-07-09T01:54:36;2.63;;;0.80;;
20802;SDS011;10562;-33.856;151.182;2023-07-09T01:57:13;2.35;;;0.77;;
20802;SDS011;10562;-33.856;151.182;2023-07-09T01:59:49;2.47;;;0.75;;
20802;SDS011;10562;-33.856;151.182;2023-07-09T02:02:21;2.97;;;0.90;;
20802;SDS011;10562;-33.856;151.182;2023-07-09T02:04:52;4.32;;;0.98;;
20802;SDS011;10562;-33.856;151.182;2023-07-09T02:07:25;3.58;;;0.80;;
20802;SDS011;10562;-33.856;151.182;2023-07-09T02:09:56;3.20;;;0.80;;
20802;SDS011;10562;-33.856;151.182;2023-07-09T02:12:27;2.90;;;1.10;;
20802;SDS011;10562;-33.856;151.182;2023-07-09T02:14:58;2.97;;;1.08;;
20802;SDS011;10562;-33.856;151.182;2023-07-09T02:17:29;2.13;;;1.00;;
20802;SDS011;10562;-33.856;151.182;2023-07-09T02:19:59;4.45;;;0.88;;
20802;SDS011;10562;-33.856;151.182;2023-07-09T02:22:33;3.20;;;0.80;;
20802;SDS011;10562;-33.856;151.182;2023-07-09T02:25:04;3.33;;;0.80;;
20802;SDS011;10562;-33.856;151.182;2023-07-09T02:27:36;2.08;;;0.80;;
20802;SDS011;10562;-33.856;151.182;2023-07-09T02:30:07;3.53;;;0.90;;
20802;SDS011;10562;-33.856;151.182;2023-07-09T02:32:39;2.55;;;0.80;;
20802;SDS011;10562;-33.856;151.182;2023-07-09T02:35:11;3.97;;;1.00;;
20802;SDS011;10562;-33.856;151.182;2023-07-09T02:37:43;2.35;;;0.98;;
20802;SDS011;10562;-33.856;151.182;2023-07-09T02:40:14;3.00;;;1.08;;
20802;SDS011;10562;-33.856;151.182;2023-07-09T02:42:45;1.95;;;0.90;;
20802;SDS011;10562;-33.856;151.182;2023-07-09T02:45:16;3.97;;;1.00;;
20802;SDS011;10562;-33.856;151.182;2023-07-09T02:47:47;1.67;;;0.63;;
20802;SDS011;10562;-33.856;151.182;2023-07-09T02:50:18;2.63;;;0.85;;
20802;SDS011;10562;-33.856;151.182;2023-07-09T02:52:53;3.45;;;0.88;;
20802;SDS011;10562;-33.856;151.182;2023-07-09T02:55:24;2.53;;;1.00;;
20802;SDS011;10562;-33.856;151.182;2023-07-09T02:57:56;3.92;;;0.90;;
20802;SDS011;10562;-33.856;151.182;2023-07-09T03:00:26;2.50;;;0.93;;
20802;SDS011;10562;-33.856;151.182;2023-07-09T03:02:58;2.92;;;0.90;;
20802;SDS011;10562;-33.856;151.182;2023-07-09T03:05:29;3.95;;;1.00;;
20802;SDS011;10562;-33.856;151.182;2023-07-09T03:08:02;3.95;;;1.00;;
20802;SDS011;10562;-33.856;151.182;2023-07-09T03:10:32;5.18;;;1.13;;
20802;SDS011;10562;-33.856;151.182;2023-07-09T03:13:03;3.47;;;0.93;;
20802;SDS011;10562;-33.856;151.182;2023-07-09T03:15:34;2.38;;;0.90;;
20802;SDS011;10562;-33.856;151.182;2023-07-09T03:18:05;6.25;;;1.00;;
20802;SDS011;10562;-33.856;151.182;2023-07-09T03:20:35;3.13;;;1.02;;
20802;SDS011;10562;-33.856;151.182;2023-07-09T03:23:09;4.13;;;1.15;;
20802;SDS011;10562;-33.856;151.182;2023-07-09T03:25:40;4.35;;;1.10;;
20802;SDS011;10562;-33.856;151.182;2023-07-09T03:28:11;3.47;;;1.00;;
20802;SDS011;10562;-33.856;151.182;2023-07-09T03:30:42;1.58;;;0.80;;
20802;SDS011;10562;-33.856;151.182;2023-07-09T03:33:14;1.70;;;0.60;;
20802;SDS011;10562;-33.856;151.182;2023-07-09T03:35:45;2.10;;;0.88;;
20802;SDS011;10562;-33.856;151.182;2023-07-09T03:38:18;4.05;;;1.00;;
20802;SDS011;10562;-33.856;151.182;2023-07-09T03:40:52;4.30;;;1.20;;
20802;SDS011;10562;-33.856;151.182;2023-07-09T03:43:23;2.33;;;0.82;;
20802;SDS011;10562;-33.856;151.182;2023-07-09T03:45:54;3.08;;;0.90;;
20802;SDS011;10562;-33.856;151.182;2023-07-09T03:48:25;4.85;;;0.90;;
20802;SDS011;10562;-33.856;151.182;2023-07-09T03:50:56;4.25;;;1.00;;
20802;SDS011;10562;-33.856;151.182;2023-07-09T03:53:28;3.90;;;0.88;;
20802;SDS011;10562;-33.856;151.182;2023-07-09T03:55:59;2.78;;;0.70;;
20802;SDS011;10562;-33.856;151.182;2023-07-09T03:58:30;1.65;;;0.80;;
20802;SDS011;10562;-33.856;151.182;2023-07-09T04:01:01;8.48;;;0.75;;
20802;SDS011;10562;-33.856;151.182;2023-07-09T04:03:32;1.98;;;0.70;;
20802;SDS011;10562;-33.856;151.182;2023-07-09T04:06:03;4.15;;;0.82;;
20802;SDS011;10562;-33.856;151.182;2023-07-09T04:08:37;1.98;;;0.60;;
20802;SDS011;10562;-33.856;151.182;2023-07-09T04:11:08;2.72;;;0.80;;
20802;SDS011;10562;-33.856;151.182;2023-07-09T04:13:38;3.10;;;0.77;;
20802;SDS011;10562;-33.856;151.182;2023-07-09T04:16:09;2.00;;;0.70;;
20802;SDS011;10562;-33.856;151.182;2023-07-09T04:18:41;2.40;;;0.88;;
20802;SDS011;10562;-33.856;151.182;2023-07-09T04:21:11;2.03;;;0.82;;
20802;SDS011;10562;-33.856;151.182;2023-07-09T04:23:45;3.38;;;1.10;;
20802;SDS011;10562;-33.856;151.182;2023-07-09T04:26:17;2.55;;;0.85;;
20802;SDS011;10562;-33.856;151.182;2023-07-09T04:28:49;2.55;;;0.77;;
20802;SDS011;10562;-33.856;151.182;2023-07-09T04:31:20;1.73;;;0.73;;
20802;SDS011;10562;-33.856;151.182;2023-07-09T04:33:51;3.65;;;0.60;;
20802;SDS011;10562;-33.856;151.182;2023-07-09T04:36:22;2.83;;;0.50;;
20802;SDS011;10562;-33.856;151.182;2023-07-09T04:38:54;3.13;;;0.80;;
20802;SDS011;10562;-33.856;151.182;2023-07-09T04:41:25;1.98;;;0.60;;
20802;SDS011;10562;-33.856;151.182;2023-07-09T04:43:56;2.47;;;0.57;;
20802;SDS011;10562;-33.856;151.182;2023-07-09T04:46:27;3.63;;;0.90;;
20802;SDS011;10562;-33.856;151.182;2023-07-09T04:48:57;3.38;;;0.95;;
20802;SDS011;10562;-33.856;151.182;2023-07-09T04:51:28;1.50;;;0.70;;
20802;SDS011;10562;-33.856;151.182;2023-07-09T04:54:01;3.85;;;1.00;;
20802;SDS011;10562;-33.856;151.182;2023-07-09T04:56:32;3.17;;;0.75;;
20802;SDS011;10562;-33.856;151.182;2023-07-09T04:59:04;1.83;;;0.60;;
20802;SDS011;10562;-33.856;151.182;2023-07-09T05:01:35;3.00;;;0.73;;
20802;SDS011;10562;-33.856;151.182;2023-07-09T05:04:09;1.48;;;0.65;;
20802;SDS011;10562;-33.856;151.182;2023-07-09T05:06:40;1.35;;;0.70;;
20802;SDS011;10562;-33.856;151.182;2023-07-09T05:09:14;1.98;;;0.73;;
20802;SDS011;10562;-33.856;151.182;2023-07-09T05:11:46;3.00;;;0.65;;
20802;SDS011;10562;-33.856;151.182;2023-07-09T05:14:16;2.28;;;0.50;;
20802;SDS011;10562;-33.856;151.182;2023-07-09T05:16:47;1.63;;;0.50;;
20802;SDS011;10562;-33.856;151.182;2023-07-09T05:19:18;2.88;;;0.50;;
20802;SDS011;10562;-33.856;151.182;2023-07-09T05:21:49;2.22;;;0.63;;
20802;SDS011;10562;-33.856;151.182;2023-07-09T05:24:22;1.98;;;0.70;;
20802;SDS011;10562;-33.856;151.182;2023-07-09T05:26:52;1.45;;;0.60;;
20802;SDS011;10562;-33.856;151.182;2023-07-09T05:29:24;2.40;;;0.80;;
20802;SDS011;10562;-33.856;151.182;2023-07-09T05:31:55;0.95;;;0.50;;
20802;SDS011;10562;-33.856;151.182;2023-07-09T05:34:25;2.83;;;0.70;;
20802;SDS011;10562;-33.856;151.182;2023-07-09T05:36:56;2.17;;;0.65;;
20802;SDS011;10562;-33.856;151.182;2023-07-09T05:39:29;2.13;;;0.60;;
20802;SDS011;10562;-33.856;151.182;2023-07-09T05:42:00;4.32;;;0.88;;
20802;SDS011;10562;-33.856;151.182;2023-07-09T05:44:30;3.83;;;0.82;;
20802;SDS011;10562;-33.856;151.182;2023-07-09T05:47:01;2.60;;;0.77;;
20802;SDS011;10562;-33.856;151.182;2023-07-09T05:49:32;2.67;;;0.63;;
20802;SDS011;10562;-33.856;151.182;2023-07-09T05:52:03;3.08;;;0.60;;
20802;SDS011;10562;-33.856;151.182;2023-07-09T05:54:36;2.40;;;0.90;;
20802;SDS011;10562;-33.856;151.182;2023-07-09T05:57:07;3.97;;;1.00;;
20802;SDS011;10562;-33.856;151.182;2023-07-09T05:59:38;5.28;;;1.10;;
20802;SDS011;10562;-33.856;151.182;2023-07-09T06:02:10;3.83;;;0.75;;
20802;SDS011;10562;-33.856;151.182;2023-07-09T06:04:41;1.30;;;0.60;;
20802;SDS011;10562;-33.856;151.182;2023-07-09T06:07:12;3.38;;;1.05;;
20802;SDS011;10562;-33.856;151.182;2023-07-09T06:09:46;1.58;;;0.70;;
20802;SDS011;10562;-33.856;151.182;2023-07-09T06:12:18;3.22;;;1.00;;
20802;SDS011;10562;-33.856;151.182;2023-07-09T06:14:48;3.58;;;1.35;;
20802;SDS011;10562;-33.856;151.182;2023-07-09T06:17:19;3.17;;;0.80;;
20802;SDS011;10562;-33.856;151.182;2023-07-09T06:19:50;2.20;;;0.93;;
20802;SDS011;10562;-33.856;151.182;2023-07-09T06:22:21;4.00;;;0.80;;
20802;SDS011;10562;-33.856;151.182;2023-07-09T06:24:54;3.25;;;0.65;;
20802;SDS011;10562;-33.856;151.182;2023-07-09T06:27:24;5.95;;;0.80;;
20802;SDS011;10562;-33.856;151.182;2023-07-09T06:29:55;5.00;;;0.80;;
20802;SDS011;10562;-33.856;151.182;2023-07-09T06:32:26;3.35;;;0.90;;
20802;SDS011;10562;-33.856;151.182;2023-07-09T06:34:57;4.45;;;1.00;;
20802;SDS011;10562;-33.856;151.182;2023-07-09T06:37:27;3.17;;;0.75;;
20802;SDS011;10562;-33.856;151.182;2023-07-09T06:40:00;1.85;;;0.70;;
20802;SDS011;10562;-33.856;151.182;2023-07-09T06:42:33;2.78;;;0.88;;
20802;SDS011;10562;-33.856;151.182;2023-07-09T06:45:05;3.65;;;1.10;;
20802;SDS011;10562;-33.856;151.182;2023-07-09T06:47:36;3.95;;;1.30;;
20802;SDS011;10562;-33.856;151.182;2023-07-09T06:50:07;2.03;;;1.00;;
20802;SDS011;10562;-33.856;151.182;2023-07-09T06:52:38;4.05;;;1.20;;
20802;SDS011;10562;-33.856;151.182;2023-07-09T06:55:11;2.17;;;0.90;;
20802;SDS011;10562;-33.856;151.182;2023-07-09T06:57:42;4.50;;;1.38;;
20802;SDS011;10562;-33.856;151.182;2023-07-09T07:00:13;1.73;;;0.80;;
20802;SDS011;10562;-33.856;151.182;2023-07-09T07:02:45;3.58;;;1.35;;
20802;SDS011;10562;-33.856;151.182;2023-07-09T07:05:16;3.63;;;1.50;;
20802;SDS011;10562;-33.856;151.182;2023-07-09T07:07:47;4.78;;;1.42;;
20802;SDS011;10562;-33.856;151.182;2023-07-09T07:10:19;4.05;;;1.58;;
20802;SDS011;10562;-33.856;151.182;2023-07-09T07:12:50;5.40;;;1.75;;
20802;SDS011;10562;-33.856;151.182;2023-07-09T07:15:21;2.42;;;1.30;;
20802;SDS011;10562;-33.856;151.182;2023-07-09T07:17:52;4.80;;;1.42;;
20802;SDS011;10562;-33.856;151.182;2023-07-09T07:20:23;2.50;;;0.93;;
20802;SDS011;10562;-33.856;151.182;2023-07-09T07:22:54;2.17;;;1.20;;
20802;SDS011;10562;-33.856;151.182;2023-07-09T07:25:27;2.30;;;1.00;;
20802;SDS011;10562;-33.856;151.182;2023-07-09T07:27:58;3.20;;;1.20;;
20802;SDS011;10562;-33.856;151.182;2023-07-09T07:30:29;2.00;;;0.90;;
20802;SDS011;10562;-33.856;151.182;2023-07-09T07:33:00;3.42;;;1.33;;
20802;SDS011;10562;-33.856;151.182;2023-07-09T07:35:31;2.47;;;0.98;;
20802;SDS011;10562;-33.856;151.182;2023-07-09T07:38:02;2.95;;;1.20;;
20802;SDS011;10562;-33.856;151.182;2023-07-09T07:40:35;2.55;;;1.35;;
20802;SDS011;10562;-33.856;151.182;2023-07-09T07:43:06;3.30;;;1.40;;
20802;SDS011;10562;-33.856;151.182;2023-07-09T07:45:37;3.90;;;1.40;;
20802;SDS011;10562;-33.856;151.182;2023-07-09T07:48:10;3.00;;;1.50;;
20802;SDS011;10562;-33.856;151.182;2023-07-09T07:50:41;2.92;;;1.60;;
20802;SDS011;10562;-33.856;151.182;2023-07-09T07:53:14;3.70;;;1.67;;
20802;SDS011;10562;-33.856;151.182;2023-07-09T07:55:47;3.50;;;1.38;;
20802;SDS011;10562;-33.856;151.182;2023-07-09T07:58:18;3.15;;;1.60;;
20802;SDS011;10562;-33.856;151.182;2023-07-09T08:00:49;5.18;;;1.40;;
20802;SDS011;10562;-33.856;151.182;2023-07-09T08:03:23;4.03;;;1.55;;
20802;SDS011;10562;-33.856;151.182;2023-07-09T08:05:54;2.40;;;1.23;;
20802;SDS011;10562;-33.856;151.182;2023-07-09T08:08:25;4.03;;;1.52;;
20802;SDS011;10562;-33.856;151.182;2023-07-09T08:11:02;3.30;;;1.23;;
20802;SDS011;10562;-33.856;151.182;2023-07-09T08:13:35;4.28;;;1.55;;
20802;SDS011;10562;-33.856;151.182;2023-07-09T08:16:06;2.60;;;1.35;;
20802;SDS011;10562;-33.856;151.182;2023-07-09T08:18:39;3.03;;;1.65;;
20802;SDS011;10562;-33.856;151.182;2023-07-09T08:21:10;5.90;;;2.30;;
20802;SDS011;10562;-33.856;151.182;2023-07-09T08:23:40;5.65;;;2.20;;
20802;SDS011;10562;-33.856;151.182;2023-07-09T08:26:13;3.03;;;1.92;;
20802;SDS011;10562;-33.856;151.182;2023-07-09T08:28:44;2.55;;;1.40;;
20802;SDS011;10562;-33.856;151.182;2023-07-09T08:31:14;3.55;;;1.40;;
20802;SDS011;10562;-33.856;151.182;2023-07-09T08:33:45;3.38;;;1.50;;
20802;SDS011;10562;-33.856;151.182;2023-07-09T08:36:16;3.78;;;1.58;;
20802;SDS011;10562;-33.856;151.182;2023-07-09T08:38:47;4.32;;;1.67;;
20802;SDS011;10562;-33.856;151.182;2023-07-09T08:41:24;6.55;;;1.70;;
20802;SDS011;10562;-33.856;151.182;2023-07-09T08:44:08;3.97;;;1.60;;
20802;SDS011;10562;-33.856;151.182;2023-07-09T08:47:00;4.88;;;2.20;;
20802;SDS011;10562;-33.856;151.182;2023-07-09T08:49:37;4.47;;;1.80;;
20802;SDS011;10562;-33.856;151.182;2023-07-09T08:52:12;5.10;;;1.85;;
20802;SDS011;10562;-33.856;151.182;2023-07-09T08:54:51;3.63;;;1.58;;
20802;SDS011;10562;-33.856;151.182;2023-07-09T08:57:37;6.10;;;2.20;;
20802;SDS011;10562;-33.856;151.182;2023-07-09T09:00:13;4.32;;;1.80;;
20802;SDS011;10562;-33.856;151.182;2023-07-09T09:02:48;4.78;;;1.70;;
20802;SDS011;10562;-33.856;151.182;2023-07-09T09:05:24;9.00;;;3.60;;
20802;SDS011;10562;-33.856;151.182;2023-07-09T09:07:56;5.25;;;2.20;;
20802;SDS011;10562;-33.856;151.182;2023-07-09T09:10:29;5.22;;;2.60;;
20802;SDS011;10562;-33.856;151.182;2023-07-09T09:13:10;3.78;;;2.00;;
20802;SDS011;10562;-33.856;151.182;2023-07-09T09:15:43;5.50;;;2.80;;
20802;SDS011;10562;-33.856;151.182;2023-07-09T09:18:20;5.15;;;2.40;;
20802;SDS011;10562;-33.856;151.182;2023-07-09T09:20:54;7.47;;;2.47;;
20802;SDS011;10562;-33.856;151.182;2023-07-09T09:23:28;6.97;;;2.60;;
20802;SDS011;10562;-33.856;151.182;2023-07-09T09:26:09;6.18;;;2.80;;
20802;SDS011;10562;-33.856;151.182;2023-07-09T09:28:48;7.05;;;2.60;;
20802;SDS011;10562;-33.856;151.182;2023-07-09T09:31:19;6.47;;;2.60;;
20802;SDS011;10562;-33.856;151.182;2023-07-09T09:33:50;5.30;;;2.00;;
20802;SDS011;10562;-33.856;151.182;2023-07-09T09:36:21;4.15;;;1.98;;
20802;SDS011;10562;-33.856;151.182;2023-07-09T09:38:53;6.28;;;1.83;;
20802;SDS011;10562;-33.856;151.182;2023-07-09T09:41:25;6.45;;;2.00;;
20802;SDS011;10562;-33.856;151.182;2023-07-09T09:44:01;5.45;;;1.85;;
20802;SDS011;10562;-33.856;151.182;2023-07-09T09:46:32;3.55;;;1.50;;
20802;SDS011;10562;-33.856;151.182;2023-07-09T09:49:08;6.63;;;1.70;;
20802;SDS011;10562;-33.856;151.182;2023-07-09T09:51:40;8.00;;;1.98;;
20802;SDS011;10562;-33.856;151.182;2023-07-09T09:54:15;6.07;;;1.67;;
20802;SDS011;10562;-33.856;151.182;2023-07-09T09:56:48;3.90;;;1.75;;
20802;SDS011;10562;-33.856;151.182;2023-07-09T09:59:24;4.70;;;2.17;;
20802;SDS011;10562;-33.856;151.182;2023-07-09T10:01:59;4.85;;;1.90;;
20802;SDS011;10562;-33.856;151.182;2023-07-09T10:04:31;3.88;;;1.77;;
20802;SDS011;10562;-33.856;151.182;2023-07-09T10:07:03;4.63;;;1.50;;
20802;SDS011;10562;-33.856;151.182;2023-07-09T10:09:43;5.30;;;1.77;;
20802;SDS011;10562;-33.856;151.182;2023-07-09T10:12:18;5.47;;;2.30;;
20802;SDS011;10562;-33.856;151.182;2023-07-09T10:15:05;8.50;;;2.30;;
20802;SDS011;10562;-33.856;151.182;2023-07-09T10:17:54;5.65;;;2.13;;
20802;SDS011;10562;-33.856;151.182;2023-07-09T10:20:32;3.63;;;1.65;;
20802;SDS011;10562;-33.856;151.182;2023-07-09T10:23:10;5.97;;;1.70;;
20802;SDS011;10562;-33.856;151.182;2023-07-09T10:25:51;6.75;;;1.80;;
20802;SDS011;10562;-33.856;151.182;2023-07-09T10:31:26;3.38;;;1.40;;
20802;SDS011;10562;-33.856;151.182;2023-07-09T10:34:06;5.13;;;1.58;;
20802;SDS011;10562;-33.856;151.182;2023-07-09T10:36:54;2.72;;;1.60;;
20802;SDS011;10562;-33.856;151.182;2023-07-09T10:39:37;5.22;;;2.35;;
20802;SDS011;10562;-33.856;151.182;2023-07-09T10:42:12;5.15;;;2.08;;
20802;SDS011;10562;-33.856;151.182;2023-07-09T10:44:51;3.55;;;1.75;;
20802;SDS011;10562;-33.856;151.182;2023-07-09T10:47:30;7.57;;;2.00;;
20802;SDS011;10562;-33.856;151.182;2023-07-09T10:50:05;4.95;;;1.83;;
20802;SDS011;10562;-33.856;151.182;2023-07-09T10:52:41;5.97;;;2.00;;
20802;SDS011;10562;-33.856;151.182;2023-07-09T10:55:16;6.38;;;2.50;;
20802;SDS011;10562;-33.856;151.182;2023-07-09T10:57:54;5.63;;;2.00;;
20802;SDS011;10562;-33.856;151.182;2023-07-09T11:00:31;6.50;;;1.77;;
20802;SDS011;10562;-33.856;151.182;2023-07-09T11:03:12;8.50;;;1.67;;
20802;SDS011;10562;-33.856;151.182;2023-07-09T11:05:47;6.03;;;1.55;;
20802;SDS011;10562;-33.856;151.182;2023-07-09T11:08:20;3.00;;;1.45;;
20802;SDS011;10562;-33.856;151.182;2023-07-09T11:10:55;6.15;;;1.67;;
20802;SDS011;10562;-33.856;151.182;2023-07-09T11:13:31;4.90;;;1.80;;
20802;SDS011;10562;-33.856;151.182;2023-07-09T11:16:08;3.78;;;1.80;;
20802;SDS011;10562;-33.856;151.182;2023-07-09T11:18:55;6.38;;;2.65;;
20802;SDS011;10562;-33.856;151.182;2023-07-09T11:21:28;5.50;;;2.45;;
20802;SDS011;10562;-33.856;151.182;2023-07-09T11:24:00;4.10;;;1.70;;
20802;SDS011;10562;-33.856;151.182;2023-07-09T11:26:32;3.17;;;1.52;;
20802;SDS011;10562;-33.856;151.182;2023-07-09T11:29:14;3.65;;;1.85;;
20802;SDS011;10562;-33.856;151.182;2023-07-09T11:31:46;2.60;;;1.38;;
20802;SDS011;10562;-33.856;151.182;2023-07-09T11:34:19;2.92;;;1.40;;
20802;SDS011;10562;-33.856;151.182;2023-07-09T11:36:57;3.55;;;1.27;;
20802;SDS011;10562;-33.856;151.182;2023-07-09T11:39:29;4.78;;;1.70;;
20802;SDS011;10562;-33.856;151.182;2023-07-09T11:44:58;2.65;;;1.10;;
20802;SDS011;10562;-33.856;151.182;2023-07-09T11:47:36;2.50;;;1.13;;
20802;SDS011;10562;-33.856;151.182;2023-07-09T11:50:19;2.88;;;1.25;;
20802;SDS011;10562;-33.856;151.182;2023-07-09T11:52:54;2.72;;;1.30;;
20802;SDS011;10562;-33.856;151.182;2023-07-09T11:55:27;3.30;;;1.30;;
20802;SDS011;10562;-33.856;151.182;2023-07-09T11:58:03;2.65;;;1.25;;
20802;SDS011;10562;-33.856;151.182;2023-07-09T12:00:37;4.30;;;1.30;;
20802;SDS011;10562;-33.856;151.182;2023-07-09T12:03:10;2.47;;;1.30;;
20802;SDS011;10562;-33.856;151.182;2023-07-09T12:05:49;3.80;;;1.40;;
20802;SDS011;10562;-33.856;151.182;2023-07-09T12:08:22;3.15;;;1.38;;
20802;SDS011;10562;-33.856;151.182;2023-07-09T12:10:56;2.85;;;1.52;;
20802;SDS011;10562;-33.856;151.182;2023-07-09T12:13:26;2.38;;;1.20;;
20802;SDS011;10562;-33.856;151.182;2023-07-09T12:15:57;5.80;;;1.90;;
20802;SDS011;10562;-33.856;151.182;2023-07-09T12:18:28;3.83;;;1.70;;
20802;SDS011;10562;-33.856;151.182;2023-07-09T12:21:01;3.65;;;1.60;;
20802;SDS011;10562;-33.856;151.182;2023-07-09T12:23:37;3.90;;;1.83;;
20802;SDS011;10562;-33.856;151.182;2023-07-09T12:26:11;5.10;;;1.63;;
20802;SDS011;10562;-33.856;151.182;2023-07-09T12:28:43;4.30;;;1.45;;
20802;SDS011;10562;-33.856;151.182;2023-07-09T12:31:21;2.97;;;1.50;;
20802;SDS011;10562;-33.856;151.182;2023-07-09T12:33:55;3.55;;;1.45;;
20802;SDS011;10562;-33.856;151.182;2023-07-09T12:36:28;5.55;;;1.48;;
20802;SDS011;10562;-33.856;151.182;2023-07-09T12:39:00;3.03;;;1.52;;
20802;SDS011;10562;-33.856;151.182;2023-07-09T12:41:35;5.13;;;1.70;;
20802;SDS011;10562;-33.856;151.182;2023-07-09T12:44:11;6.22;;;1.63;;
20802;SDS011;10562;-33.856;151.182;2023-07-09T12:46:46;3.92;;;1.30;;
20802;SDS011;10562;-33.856;151.182;2023-07-09T12:49:22;2.90;;;1.25;;
20802;SDS011;10562;-33.856;151.182;2023-07-09T12:51:55;2.42;;;1.17;;
20802;SDS011;10562;-33.856;151.182;2023-07-09T12:54:30;3.15;;;1.40;;
20802;SDS011;10562;-33.856;151.182;2023-07-09T12:57:01;3.03;;;1.20;;
20802;SDS011;10562;-33.856;151.182;2023-07-09T12:59:45;3.53;;;1.35;;
20802;SDS011;10562;-33.856;151.182;2023-07-09T13:02:16;3.80;;;1.00;;
20802;SDS011;10562;-33.856;151.182;2023-07-09T13:04:48;3.10;;;1.20;;
20802;SDS011;10562;-33.856;151.182;2023-07-09T13:07:30;1.80;;;1.08;;
20802;SDS011;10562;-33.856;151.182;2023-07-09T13:10:07;2.28;;;1.08;;
20802;SDS011;10562;-33.856;151.182;2023-07-09T13:12:45;2.58;;;1.15;;
20802;SDS011;10562;-33.856;151.182;2023-07-09T13:15:25;2.40;;;1.10;;
20802;SDS011;10562;-33.856;151.182;2023-07-09T13:18:01;1.48;;;1.00;;
20802;SDS011;10562;-33.856;151.182;2023-07-09T13:20:34;2.35;;;0.90;;
20802;SDS011;10562;-33.856;151.182;2023-07-09T13:23:13;1.98;;;1.05;;
20802;SDS011;10562;-33.856;151.182;2023-07-09T13:25:45;2.20;;;1.20;;
20802;SDS011;10562;-33.856;151.182;2023-07-09T13:28:16;3.17;;;1.17;;
20802;SDS011;10562;-33.856;151.182;2023-07-09T13:30:50;3.22;;;1.30;;
20802;SDS011;10562;-33.856;151.182;2023-07-09T13:33:22;1.90;;;1.15;;
20802;SDS011;10562;-33.856;151.182;2023-07-09T13:35:53;2.38;;;1.02;;
20802;SDS011;10562;-33.856;151.182;2023-07-09T13:38:26;3.22;;;1.27;;
20802;SDS011;10562;-33.856;151.182;2023-07-09T13:40:57;4.43;;;1.10;;
20802;SDS011;10562;-33.856;151.182;2023-07-09T13:43:29;2.80;;;1.25;;
20802;SDS011;10562;-33.856;151.182;2023-07-09T13:46:01;2.83;;;1.30;;
20802;SDS011;10562;-33.856;151.182;2023-07-09T13:48:33;3.03;;;0.98;;
20802;SDS011;10562;-33.856;151.182;2023-07-09T13:51:09;3.35;;;1.20;;
20802;SDS011;10562;-33.856;151.182;2023-07-09T13:53:46;2.90;;;1.20;;
20802;SDS011;10562;-33.856;151.182;2023-07-09T13:56:17;3.20;;;1.10;;
20802;SDS011;10562;-33.856;151.182;2023-07-09T13:58:48;6.45;;;1.10;;
20802;SDS011;10562;-33.856;151.182;2023-07-09T14:01:20;3.00;;;1.08;;
20802;SDS011;10562;-33.856;151.182;2023-07-09T14:03:52;3.92;;;1.30;;
20802;SDS011;10562;-33.856;151.182;2023-07-09T14:06:26;4.07;;;1.10;;
20802;SDS011;10562;-33.856;151.182;2023-07-09T14:08:59;2.92;;;1.15;;
20802;SDS011;10562;-33.856;151.182;2023-07-09T14:11:30;6.43;;;1.40;;
20802;SDS011;10562;-33.856;151.182;2023-07-09T14:14:01;4.18;;;1.35;;
20802;SDS011;10562;-33.856;151.182;2023-07-09T14:16:33;2.85;;;1.15;;
20802;SDS011;10562;-33.856;151.182;2023-07-09T14:19:07;2.53;;;1.10;;
20802;SDS011;10562;-33.856;151.182;2023-07-09T14:21:42;4.60;;;1.40;;
20802;SDS011;10562;-33.856;151.182;2023-07-09T14:24:19;2.25;;;1.10;;
20802;SDS011;10562;-33.856;151.182;2023-07-09T14:26:51;2.20;;;1.10;;
20802;SDS011;10562;-33.856;151.182;2023-07-09T14:29:22;2.25;;;1.00;;
20802;SDS011;10562;-33.856;151.182;2023-07-09T14:31:53;3.17;;;1.00;;
20802;SDS011;10562;-33.856;151.182;2023-07-09T14:34:25;4.18;;;1.10;;
20802;SDS011;10562;-33.856;151.182;2023-07-09T14:36:59;3.97;;;1.30;;
20802;SDS011;10562;-33.856;151.182;2023-07-09T14:39:32;2.70;;;1.20;;
20802;SDS011;10562;-33.856;151.182;2023-07-09T14:42:03;6.97;;;1.40;;
20802;SDS011;10562;-33.856;151.182;2023-07-09T14:44:34;1.90;;;1.10;;
20802;SDS011;10562;-33.856;151.182;2023-07-09T14:47:20;3.78;;;0.90;;
20802;SDS011;10562;-33.856;151.182;2023-07-09T14:49:51;2.45;;;1.00;;